createdAt,value
2018-06-13T00:01:46.471Z,16.80
2018-06-13T00:04:15.472Z,16.80
2018-06-13T00:06:45.395Z,16.90
2018-06-13T00:09:14.454Z,16.90
2018-06-13T00:11:43.444Z,16.80
2018-06-13T00:14:12.480Z,16.80
2018-06-13T00:16:41.485Z,16.80
2018-06-13T00:19:10.515Z,16.80
2018-06-13T00:21:40.449Z,16.90
2018-06-13T00:24:09.484Z,16.90
2018-06-13T00:26:38.478Z,16.90
2018-06-13T00:29:08.400Z,16.80
2018-06-13T00:31:37.415Z,16.80
2018-06-13T00:34:06.491Z,16.60
2018-06-13T00:36:35.506Z,16.40
2018-06-13T00:39:07.028Z,16.30
2018-06-13T00:41:36.963Z,16.40
2018-06-13T00:44:06.019Z,16.40
2018-06-13T00:46:35.100Z,16.40
2018-06-13T00:49:06.028Z,16.40
2018-06-13T00:51:35.038Z,16.30
2018-06-13T00:54:05.088Z,16.30
2018-06-13T00:56:34.097Z,16.20
2018-06-13T00:59:03.973Z,16.20
2018-06-13T01:01:32.962Z,16.10
2018-06-13T01:04:01.976Z,16.20
2018-06-13T01:06:30.967Z,16.20
2018-06-13T01:08:59.992Z,16.30
2018-06-13T01:11:30.555Z,16.20
2018-06-13T01:13:59.572Z,16.30
2018-06-13T01:16:28.592Z,16.40
2018-06-13T01:18:58.264Z,16.40
2018-06-13T01:21:27.319Z,16.30
2018-06-13T01:23:56.425Z,16.40
2018-06-13T01:26:25.416Z,16.40
2018-06-13T01:28:54.440Z,16.40
2018-06-13T01:31:23.465Z,16.40
2018-06-13T01:33:52.571Z,16.30
2018-06-13T01:36:27.685Z,16.30
2018-06-13T01:38:57.475Z,16.30
2018-06-13T01:41:26.499Z,16.30
2018-06-13T01:43:55.520Z,16.40
2018-06-13T01:46:24.609Z,16.50
2018-06-13T01:48:57.267Z,16.40
2018-06-13T01:51:26.312Z,16.40
2018-06-13T01:53:55.335Z,16.30
2018-06-13T01:56:24.352Z,16.40
2018-06-13T01:58:53.384Z,16.20
2018-06-13T02:01:22.399Z,16.20
2018-06-13T02:03:52.883Z,16.30
2018-06-13T02:06:22.399Z,16.20
2018-06-13T02:08:51.443Z,16.30
2018-06-13T02:11:20.441Z,16.30
2018-06-13T02:13:49.448Z,16.30
2018-06-13T02:16:18.871Z,16.30
2018-06-13T02:18:48.544Z,16.30
2018-06-13T02:21:18.887Z,16.10
2018-06-13T02:23:49.424Z,16.20
2018-06-13T02:26:18.413Z,16.20
2018-06-13T02:28:47.386Z,16.20
2018-06-13T02:31:16.412Z,16.00
2018-06-13T02:33:45.427Z,16.10
2018-06-13T02:36:14.410Z,16.00
2018-06-13T02:38:43.401Z,16.00
2018-06-13T02:41:12.407Z,16.10
2018-06-13T02:43:41.417Z,16.10
2018-06-13T02:46:10.461Z,16.10
2018-06-13T02:48:40.671Z,15.90
2018-06-13T02:51:09.667Z,15.90
2018-06-13T02:53:38.648Z,16.00
2018-06-13T02:56:08.140Z,16.00
2018-06-13T02:58:37.132Z,16.10
2018-06-13T03:01:06.128Z,16.10
2018-06-13T03:03:35.112Z,16.10
2018-06-13T03:08:32.782Z,16.00
2018-06-13T03:13:30.476Z,15.90
2018-06-13T03:15:59.520Z,15.90
2018-06-13T03:18:28.513Z,15.90
2018-06-13T03:20:57.614Z,15.90
2018-06-13T03:23:27.088Z,15.80
2018-06-13T03:25:56.148Z,15.80
2018-06-13T03:28:25.129Z,15.70
2018-06-13T03:30:54.123Z,15.80
2018-06-13T03:33:23.093Z,15.80
2018-06-13T03:35:52.108Z,15.90
2018-06-13T03:38:22.064Z,15.90
2018-06-13T03:40:51.081Z,15.90
2018-06-13T03:43:20.088Z,15.90
2018-06-13T03:45:50.202Z,15.90
2018-06-13T03:48:19.211Z,15.80
2018-06-13T03:50:49.123Z,15.70
2018-06-13T03:53:18.142Z,15.90
2018-06-13T03:55:47.241Z,16.00
2018-06-13T03:58:16.231Z,16.00
2018-06-13T04:00:45.315Z,16.10
2018-06-13T04:03:16.127Z,16.00
2018-06-13T04:05:45.184Z,16.00
2018-06-13T04:08:14.203Z,15.90
2018-06-13T04:10:43.399Z,16.00
2018-06-13T04:13:12.401Z,16.00
2018-06-13T04:15:41.450Z,16.00
2018-06-13T04:18:12.950Z,16.00
2018-06-13T04:20:42.072Z,15.90
2018-06-13T04:23:11.175Z,15.80
2018-06-13T04:25:47.282Z,15.90
2018-06-13T04:28:16.517Z,15.90
2018-06-13T04:30:45.528Z,16.00
2018-06-13T04:33:15.079Z,16.00
2018-06-13T04:35:44.133Z,16.00
2018-06-13T04:38:14.695Z,16.00
2018-06-13T04:40:43.712Z,16.00
2018-06-13T04:43:14.519Z,16.00
2018-06-13T04:45:44.313Z,16.10
2018-06-13T04:48:13.319Z,16.10
2018-06-13T04:50:42.326Z,16.10
2018-06-13T04:53:12.105Z,16.00
2018-06-13T04:55:41.399Z,16.10
2018-06-13T04:58:10.402Z,16.00
2018-06-13T05:00:39.631Z,16.00
2018-06-13T05:03:09.645Z,16.00
2018-06-13T05:05:38.693Z,16.10
2018-06-13T05:08:07.862Z,16.10
2018-06-13T05:10:38.171Z,16.10
2018-06-13T05:13:08.095Z,16.10
2018-06-13T05:15:37.384Z,16.10
2018-06-13T05:18:06.370Z,16.10
2018-06-13T05:20:35.391Z,16.20
2018-06-13T05:23:04.529Z,16.20
2018-06-13T05:25:33.508Z,16.10
2018-06-13T05:28:02.541Z,16.20
2018-06-13T05:30:31.943Z,16.10
2018-06-13T05:33:00.957Z,16.10
2018-06-13T05:35:29.948Z,16.10
2018-06-13T05:38:00.577Z,16.10
2018-06-13T05:40:29.561Z,16.20
2018-06-13T05:42:58.559Z,16.10
2018-06-13T05:45:27.669Z,16.10
2018-06-13T05:47:56.685Z,16.10
2018-06-13T05:50:25.694Z,16.20
2018-06-13T05:52:55.134Z,16.20
2018-06-13T05:55:24.114Z,16.10
2018-06-13T05:57:56.892Z,16.10
2018-06-13T06:00:25.879Z,16.20
2018-06-13T06:02:54.931Z,16.10
2018-06-13T06:05:23.955Z,16.10
2018-06-13T06:07:53.165Z,16.00
2018-06-13T06:10:22.210Z,16.00
2018-06-13T06:12:51.231Z,16.00
2018-06-13T06:15:20.296Z,16.10
2018-06-13T06:17:49.313Z,16.10
2018-06-13T06:20:18.325Z,16.10
2018-06-13T06:22:47.360Z,16.10
2018-06-13T06:25:16.467Z,16.00
2018-06-13T06:30:14.584Z,16.00
2018-06-13T06:32:43.647Z,16.00
2018-06-13T06:35:12.720Z,16.00
2018-06-13T06:37:41.753Z,15.90
2018-06-13T06:40:13.377Z,15.90
2018-06-13T06:42:43.400Z,16.00
2018-06-13T06:45:14.295Z,16.00
2018-06-13T06:47:45.473Z,16.10
2018-06-13T06:50:14.556Z,16.00
2018-06-13T06:52:44.146Z,16.00
2018-06-13T06:55:13.230Z,16.00
2018-06-13T06:57:42.267Z,16.00
2018-06-13T07:00:11.833Z,16.10
2018-06-13T07:02:43.469Z,16.00
2018-06-13T07:05:13.330Z,16.10
2018-06-13T07:07:43.784Z,16.30
2018-06-13T07:10:12.828Z,16.40
2018-06-13T07:12:41.906Z,16.40
2018-06-13T07:15:12.240Z,16.50
2018-06-13T07:17:41.376Z,16.60
2018-06-13T07:20:10.426Z,16.60
2018-06-13T07:22:39.485Z,16.60
2018-06-13T07:25:08.509Z,16.60
2018-06-13T07:27:37.971Z,16.70
2018-06-13T07:30:07.121Z,16.60
2018-06-13T07:32:39.160Z,16.50
2018-06-13T07:35:08.242Z,16.60
2018-06-13T07:37:37.413Z,16.60
2018-06-13T07:40:06.531Z,16.70
2018-06-13T07:42:36.260Z,16.70
2018-06-13T07:45:05.378Z,16.90
2018-06-13T07:47:34.476Z,17.00
2018-06-13T07:50:03.537Z,17.00
2018-06-13T07:52:32.583Z,17.10
2018-06-13T07:55:01.609Z,17.10
2018-06-13T07:57:30.662Z,17.20
2018-06-13T07:59:59.741Z,17.20
2018-06-13T08:02:28.900Z,17.20
2018-06-13T08:04:57.928Z,17.20
2018-06-13T08:07:27.398Z,17.30
2018-06-13T08:09:57.924Z,17.10
2018-06-13T08:12:27.025Z,17.20
2018-06-13T08:14:56.638Z,17.20
2018-06-13T08:19:54.334Z,17.30
2018-06-13T08:22:23.375Z,17.10
2018-06-13T08:24:54.278Z,17.10
2018-06-13T08:27:23.647Z,17.30
2018-06-13T08:29:52.702Z,17.30
2018-06-13T08:32:22.479Z,17.30
2018-06-13T08:34:51.523Z,17.30
2018-06-13T08:37:20.577Z,17.30
2018-06-13T08:39:49.686Z,17.30
2018-06-13T08:42:18.824Z,17.40
2018-06-13T08:44:48.366Z,17.50
2018-06-13T08:47:17.407Z,17.70
2018-06-13T08:49:46.446Z,17.80
2018-06-13T08:52:15.480Z,17.70
2018-06-13T08:54:44.516Z,17.70
2018-06-13T08:57:13.601Z,17.70
2018-06-13T08:59:42.672Z,17.70
2018-06-13T09:02:12.687Z,17.70
2018-06-13T09:04:42.559Z,17.70
2018-06-13T09:07:11.623Z,17.70
2018-06-13T09:09:41.569Z,17.60
2018-06-13T09:12:14.885Z,17.40
2018-06-13T09:14:43.960Z,17.30
2018-06-13T09:17:13.659Z,17.30
2018-06-13T09:19:42.698Z,17.30
2018-06-13T09:22:11.706Z,17.30
2018-06-13T09:24:40.747Z,17.30
2018-06-13T09:27:09.790Z,17.30
2018-06-13T09:29:38.834Z,17.30
2018-06-13T09:32:08.099Z,17.30
2018-06-13T09:34:37.197Z,17.40
2018-06-13T09:37:06.219Z,17.40
2018-06-13T09:39:35.766Z,17.50
2018-06-13T09:42:04.797Z,17.60
2018-06-13T09:44:33.864Z,17.60
2018-06-13T09:47:06.903Z,17.60
2018-06-13T09:49:32.127Z,17.70
2018-06-13T09:52:01.989Z,17.80
2018-06-13T09:54:31.033Z,17.90
2018-06-13T09:57:00.048Z,18.00
2018-06-13T09:59:36.127Z,18.00
2018-06-13T10:02:10.632Z,18.20
2018-06-13T10:04:39.732Z,18.40
2018-06-13T10:07:09.402Z,18.50
2018-06-13T10:09:38.541Z,18.70
2018-06-13T10:12:07.687Z,18.80
2018-06-13T10:14:36.768Z,19.00
2018-06-13T10:17:05.836Z,19.00
2018-06-13T10:24:33.269Z,19.30
2018-06-13T10:27:06.499Z,19.30
2018-06-13T10:29:35.568Z,19.50
2018-06-13T10:32:04.618Z,19.70
2018-06-13T10:34:33.684Z,19.80
2018-06-13T10:37:02.722Z,19.70
2018-06-13T10:39:31.777Z,19.70
2018-06-13T10:42:01.611Z,19.60
2018-06-13T10:44:30.651Z,19.30
2018-06-13T10:46:59.680Z,19.00
2018-06-13T10:49:28.741Z,18.90
2018-06-13T10:51:57.761Z,18.80
2018-06-13T10:54:26.808Z,18.60
2018-06-13T10:56:55.837Z,18.40
2018-06-13T10:59:27.388Z,18.30
2018-06-13T11:01:57.356Z,18.30
2018-06-13T11:04:26.429Z,18.40
2018-06-13T11:06:55.464Z,18.30
2018-06-13T11:09:24.531Z,18.40
2018-06-13T11:11:54.146Z,18.40
2018-06-13T11:14:24.058Z,18.40
2018-06-13T11:16:53.092Z,18.50
2018-06-13T11:19:22.162Z,18.50
2018-06-13T11:21:51.189Z,18.70
2018-06-13T11:24:20.217Z,18.90
2018-06-13T11:26:49.237Z,18.90
2018-06-13T11:29:18.239Z,18.90
2018-06-13T11:31:47.290Z,19.00
2018-06-13T11:34:16.313Z,19.10
2018-06-13T11:36:45.333Z,19.00
2018-06-13T11:39:14.302Z,18.90
2018-06-13T11:41:44.046Z,18.80
2018-06-13T11:44:13.053Z,18.80
2018-06-13T11:46:43.192Z,18.70
2018-06-13T11:49:12.854Z,18.60
2018-06-13T11:51:41.867Z,18.50
2018-06-13T11:54:10.851Z,18.40
2018-06-13T11:56:39.855Z,18.30
2018-06-13T11:59:08.872Z,18.30
2018-06-13T12:01:37.945Z,18.10
2018-06-13T12:04:07.004Z,18.10
2018-06-13T12:06:36.108Z,18.10
2018-06-13T12:09:06.836Z,18.10
2018-06-13T12:11:36.012Z,18.20
2018-06-13T12:14:05.089Z,18.30
2018-06-13T12:16:34.233Z,18.40
2018-06-13T12:19:04.065Z,18.60
2018-06-13T12:21:35.177Z,18.60
2018-06-13T12:24:04.161Z,18.50
2018-06-13T12:26:33.212Z,18.40
2018-06-13T12:29:02.237Z,18.40
2018-06-13T12:31:31.249Z,18.30
2018-06-13T12:34:00.299Z,18.30
2018-06-13T12:36:29.325Z,18.20
2018-06-13T12:38:59.864Z,18.10
2018-06-13T12:41:28.893Z,18.20
2018-06-13T12:43:58.745Z,18.10
2018-06-13T12:46:27.777Z,18.10
2018-06-13T12:48:57.151Z,18.20
2018-06-13T12:51:26.284Z,18.30
2018-06-13T12:53:55.313Z,18.30
2018-06-13T12:56:25.390Z,18.30
2018-06-13T12:58:54.457Z,18.40
2018-06-13T13:01:23.469Z,18.40
2018-06-13T13:03:52.533Z,18.50
2018-06-13T13:06:21.737Z,18.50
2018-06-13T13:08:50.737Z,18.60
2018-06-13T13:11:19.851Z,18.60
2018-06-13T13:13:49.573Z,18.60
2018-06-13T13:16:18.841Z,18.60
2018-06-13T13:18:47.941Z,18.60
2018-06-13T13:21:16.962Z,18.70
2018-06-13T13:23:46.828Z,18.60
2018-06-13T13:26:18.709Z,18.50
2018-06-13T13:28:48.620Z,18.60
2018-06-13T13:31:17.655Z,18.60
2018-06-13T13:33:51.618Z,18.60
2018-06-13T13:36:21.404Z,18.70
2018-06-13T13:48:48.980Z,19.70
2018-06-13T13:51:18.428Z,19.10
2018-06-13T13:53:47.468Z,19.10
2018-06-13T13:56:16.537Z,19.00
2018-06-13T13:58:51.038Z,18.90
2018-06-13T14:01:32.466Z,18.80
2018-06-13T14:04:03.709Z,18.70
2018-06-13T14:06:38.796Z,18.70
2018-06-13T14:09:10.081Z,18.60
2018-06-13T14:11:39.595Z,18.50
2018-06-13T14:14:11.961Z,18.50
2018-06-13T14:16:41.055Z,18.30
2018-06-13T14:19:11.231Z,18.30
2018-06-13T14:21:40.246Z,18.40
2018-06-13T14:24:09.236Z,18.30
2018-06-13T14:26:38.280Z,18.30
2018-06-13T14:29:07.321Z,18.30
2018-06-13T14:31:36.927Z,18.20
2018-06-13T14:34:05.927Z,18.30
2018-06-13T14:36:34.906Z,18.40
2018-06-13T14:39:08.071Z,18.50
2018-06-13T14:41:37.063Z,18.50
2018-06-13T14:44:06.558Z,18.50
2018-06-13T14:46:35.629Z,18.50
2018-06-13T14:49:04.729Z,18.30
2018-06-13T14:51:34.861Z,18.30
2018-06-13T14:54:04.022Z,18.40
2018-06-13T14:56:33.780Z,18.60
2018-06-13T14:59:03.193Z,18.80
2018-06-13T15:01:33.810Z,18.80
2018-06-13T15:04:02.849Z,18.80
2018-06-13T15:06:31.877Z,18.80
2018-06-13T15:09:00.896Z,18.80
2018-06-13T15:13:58.575Z,18.90
2018-06-13T15:16:34.066Z,19.00
2018-06-13T15:19:03.939Z,18.90
2018-06-13T15:21:34.886Z,18.80
2018-06-13T15:24:03.900Z,18.90
2018-06-13T15:26:32.903Z,18.90
2018-06-13T15:29:05.022Z,18.80
2018-06-13T15:31:39.749Z,18.80
2018-06-13T15:34:08.757Z,18.70
2018-06-13T15:36:37.893Z,18.80
2018-06-13T15:39:09.405Z,18.70
2018-06-13T15:41:38.379Z,18.60
2018-06-13T15:44:08.300Z,18.60
2018-06-13T15:46:37.258Z,18.50
2018-06-13T15:49:06.324Z,18.50
2018-06-13T15:51:36.272Z,18.50
2018-06-13T15:54:05.328Z,18.40
2018-06-13T15:56:34.316Z,18.50
2018-06-13T15:59:04.405Z,18.50
2018-06-13T16:01:33.852Z,18.40
2018-06-13T16:04:06.570Z,18.50
2018-06-13T16:06:35.615Z,18.40
2018-06-13T16:09:08.442Z,18.50
2018-06-13T16:11:37.451Z,18.50
2018-06-13T16:14:06.762Z,18.60
2018-06-13T16:16:35.893Z,18.60
2018-06-13T16:19:05.299Z,18.60
2018-06-13T16:21:34.332Z,18.50
2018-06-13T16:24:03.381Z,18.50
2018-06-13T16:26:32.409Z,18.50
2018-06-13T16:29:01.464Z,18.60
2018-06-13T16:31:30.488Z,18.60
2018-06-13T16:33:59.536Z,18.60
2018-06-13T16:36:28.568Z,18.60
2018-06-13T16:38:57.628Z,18.60
2018-06-13T16:41:26.694Z,18.60
2018-06-13T16:43:56.524Z,18.60
2018-06-13T16:46:25.527Z,18.50
2018-06-13T16:48:54.577Z,18.60
2018-06-13T16:51:34.972Z,18.60
2018-06-13T16:54:10.623Z,18.50
2018-06-13T16:56:40.009Z,18.40
2018-06-13T16:59:09.480Z,18.30
2018-06-13T17:01:39.780Z,18.40
2018-06-13T17:04:09.524Z,18.40
2018-06-13T17:06:38.565Z,18.50
2018-06-13T17:09:07.935Z,18.40
2018-06-13T17:11:37.121Z,18.40
2018-06-13T17:14:06.182Z,18.40
2018-06-13T17:16:35.296Z,18.40
2018-06-13T17:19:05.703Z,18.40
2018-06-13T17:21:34.786Z,18.50
2018-06-13T17:24:03.853Z,18.50
2018-06-13T17:26:32.974Z,18.40
2018-06-13T17:29:02.994Z,18.40
2018-06-13T17:31:32.041Z,18.40
2018-06-13T17:34:01.103Z,18.40
2018-06-13T17:36:33.467Z,18.40
2018-06-13T17:39:02.580Z,18.30
2018-06-13T17:41:31.642Z,18.30
2018-06-13T17:44:00.683Z,18.30
2018-06-13T17:46:29.713Z,18.30
2018-06-13T17:49:00.388Z,18.20
2018-06-13T17:51:29.874Z,18.20
2018-06-13T17:53:58.966Z,18.20
2018-06-13T17:56:28.814Z,18.10
2018-06-13T17:58:57.859Z,18.00
2018-06-13T18:01:28.204Z,18.00
2018-06-13T18:03:57.241Z,18.00
2018-06-13T18:06:27.330Z,17.90
2018-06-13T18:08:57.558Z,18.00
2018-06-13T18:11:26.607Z,18.00
2018-06-13T18:13:56.750Z,18.00
2018-06-13T18:16:25.779Z,18.00
2018-06-13T18:18:55.864Z,18.00
2018-06-13T18:21:24.890Z,17.90
2018-06-13T18:23:53.924Z,17.90
2018-06-13T18:26:22.922Z,17.90
2018-06-13T18:28:52.001Z,17.90
2018-06-13T18:31:21.027Z,17.90
2018-06-13T18:33:50.072Z,17.80
2018-06-13T18:36:19.069Z,17.80
2018-06-13T18:38:48.063Z,17.80
2018-06-13T18:41:17.158Z,17.80
2018-06-13T18:43:46.213Z,17.80
2018-06-13T18:46:15.244Z,17.80
2018-06-13T18:48:44.240Z,17.70
2018-06-13T18:51:14.218Z,17.70
2018-06-13T18:53:43.529Z,17.70
2018-06-13T18:56:13.053Z,17.80
2018-06-13T18:58:42.072Z,17.70
2018-06-13T19:01:11.074Z,17.60
2018-06-13T19:03:40.145Z,17.60
2018-06-13T19:06:09.164Z,17.60
2018-06-13T19:08:38.549Z,17.60
2018-06-13T19:11:07.567Z,17.50
2018-06-13T19:13:36.598Z,17.50
2018-06-13T19:16:05.676Z,17.50
2018-06-13T19:18:35.264Z,17.50
2018-06-13T19:21:05.122Z,17.40
2018-06-13T19:23:41.588Z,17.50
2018-06-13T19:26:11.702Z,17.50
2018-06-13T19:28:40.691Z,17.40
2018-06-13T19:31:09.702Z,17.40
2018-06-13T19:33:38.699Z,17.30
2018-06-13T19:36:07.916Z,17.30
2018-06-13T19:38:36.887Z,17.30
2018-06-13T19:41:06.709Z,17.20
2018-06-13T19:43:39.365Z,17.20
2018-06-13T19:46:09.617Z,17.20
2018-06-13T19:51:13.368Z,17.10
2018-06-13T19:53:47.879Z,17.10
2018-06-13T19:56:20.753Z,17.00
2018-06-13T19:58:49.772Z,16.90
2018-06-13T20:01:18.797Z,16.70
2018-06-13T20:03:55.669Z,16.40
2018-06-13T20:06:26.204Z,16.30
2018-06-13T20:08:55.510Z,16.30
2018-06-13T20:11:24.596Z,16.30
2018-06-13T20:13:59.198Z,16.30
2018-06-13T20:16:44.947Z,16.40
2018-06-13T20:19:19.227Z,16.50
2018-06-13T20:21:48.245Z,16.60
2018-06-13T20:24:22.831Z,16.60
2018-06-13T20:26:57.222Z,16.70
2018-06-13T20:29:31.628Z,16.70
2018-06-13T20:32:00.682Z,16.60
2018-06-13T20:34:29.664Z,16.60
2018-06-13T20:36:58.688Z,16.50
2018-06-13T20:39:27.681Z,16.50
2018-06-13T20:41:56.715Z,16.40
2018-06-13T20:44:25.740Z,16.20
2018-06-13T20:46:54.749Z,15.90
2018-06-13T20:49:24.279Z,15.90
2018-06-13T20:51:53.953Z,16.10
2018-06-13T20:54:22.955Z,16.00
2018-06-13T20:56:52.008Z,16.20
2018-06-13T20:59:21.016Z,16.00
2018-06-13T21:01:50.027Z,15.90
2018-06-13T21:04:19.020Z,15.90
2018-06-13T21:06:48.033Z,15.90
2018-06-13T21:09:17.020Z,15.90
2018-06-13T21:11:46.816Z,15.80
2018-06-13T21:14:15.834Z,15.60
2018-06-13T21:16:44.889Z,15.50
2018-06-13T21:19:18.865Z,15.60
2018-06-13T21:21:47.875Z,15.50
2018-06-13T21:24:17.228Z,15.30
2018-06-13T21:26:46.258Z,15.40
2018-06-13T21:29:15.819Z,15.40
2018-06-13T21:31:44.851Z,15.50
2018-06-13T21:34:13.841Z,15.40
2018-06-13T21:36:42.819Z,14.90
2018-06-13T21:39:14.673Z,14.90
2018-06-13T21:41:44.292Z,15.00
2018-06-13T21:44:13.283Z,15.10
2018-06-13T21:46:42.268Z,15.20
2018-06-13T21:49:11.788Z,15.00
2018-06-13T21:51:43.312Z,14.80
2018-06-13T21:54:12.333Z,14.90
2018-06-13T21:56:41.332Z,15.00
2018-06-13T21:59:10.964Z,14.80
2018-06-13T22:01:40.044Z,14.60
2018-06-13T22:04:09.061Z,14.50
2018-06-13T22:06:38.532Z,14.60
2018-06-13T22:09:09.181Z,14.70
2018-06-13T22:11:43.585Z,14.70
2018-06-13T22:14:12.595Z,14.70
2018-06-13T22:16:42.716Z,14.80
2018-06-13T22:19:11.788Z,14.80
2018-06-13T22:21:40.784Z,14.70
2018-06-13T22:24:10.114Z,14.80
2018-06-13T22:26:39.236Z,14.60
2018-06-13T22:29:09.126Z,14.20
2018-06-13T22:31:38.148Z,13.90
2018-06-13T22:34:07.713Z,14.00
2018-06-13T22:36:36.832Z,14.00
2018-06-13T22:39:08.544Z,14.10
2018-06-13T22:41:37.527Z,14.20
2018-06-13T22:44:07.757Z,14.10
2018-06-13T22:46:37.276Z,14.10
2018-06-13T22:49:06.398Z,14.20
2018-06-13T22:51:35.424Z,14.20
2018-06-13T22:54:04.543Z,14.10
2018-06-13T22:56:33.536Z,13.90
2018-06-13T22:59:02.540Z,13.80
2018-06-13T23:01:31.516Z,13.60
2018-06-13T23:04:00.936Z,13.40
2018-06-13T23:06:30.527Z,13.40
2018-06-13T23:08:59.555Z,13.40
2018-06-13T23:11:28.537Z,13.60
2018-06-13T23:13:57.528Z,13.50
2018-06-13T23:16:27.192Z,13.50
2018-06-13T23:18:57.394Z,13.50
2018-06-13T23:23:55.016Z,13.40
2018-06-13T23:26:24.019Z,13.40
2018-06-13T23:28:53.035Z,13.40
2018-06-13T23:31:22.051Z,13.10
2018-06-13T23:33:54.746Z,13.00
2018-06-13T23:36:24.256Z,13.00
2018-06-13T23:38:53.381Z,12.90
2018-06-13T23:41:22.409Z,13.00
2018-06-13T23:43:51.408Z,12.90
2018-06-13T23:46:20.403Z,12.70
2018-06-13T23:48:49.456Z,12.60
2018-06-13T23:51:18.880Z,12.50
2018-06-13T23:53:47.925Z,12.40
2018-06-13T23:56:17.633Z,12.40
2018-06-13T23:58:46.621Z,12.30
